Amalia, NM (87512)

7:05 PM MDT on October 20, 2014 (GMT -0600)
Idlewild Community | Change Station
CLOSE
Current Station
Personal Weather Station
Location: Eagle Nest, NM
Elevation: 8658 ft
Nearby Weather Stations

Elev 8658 ft 36.55 °N, 105.30 °W | Updated 10 minutes ago

Partly Cloudy
Partly Cloudy
45.1 °F
Feels Like 45 °F
N
0.0
Wind Variable Wind from NNE

Today
High -- | Low -- °F
--% Chance of Precip.
Yesterday
High -- | Low -- °F
Precip. -- in
7:14 AM 6:19 PM
Waning Crescent, 8% visible
Pressure 30.22 in
Visibility 10.0 miles
Clouds Mostly Cloudy 8000 ft
Windchill 45 °F
Dew Point 37 °F
Humidity 74%
Rainfall 0.00 in
Snow Depth Not available.
UV 0 out of 12
Pollen 2.30 out of 12
Air Quality Not available.
Flu Activity Sporadic
METAR KSKX 210055Z AUTO 08009KT 10SM BKN080 14/01 A3022 RMK AO1

More Conditions Fewer Conditions

Pressure 30.22 in
Visibility 10.0 miles
Clouds Mostly Cloudy 8000 ft
Windchill 45 °F
Dew Point 37 °F
Humidity 74%
Rainfall 0.00 in
Snow Depth Not available.
UV 0 out of 12
Pollen 2.30 out of 12
Air Quality Not available.
Flu Activity Sporadic
METAR KSKX 210055Z AUTO 08009KT 10SM BKN080 14/01 A3022 RMK AO1

More Conditions Fewer Conditions

Nowcast | as of 5:50 PM MDT on October 20, 2014

Through the evening...showers and a perhaps a stray thunderstorm will continue over the northern mountains and upper Rio Grande Valley of New Mexico. Rainfall amounts will generally be around a tenth of an inch or less...though very localized areas may see up to one quarter of an inch. Areas that may be affected through 8 PM include El Vado...Jemez Springs...Espanola...Chili...Glorieta... Cowles...and Chacon.

×

10-Day Weather Forecast

Almanac

Astronomy

Oct. 20, 2014 Rise Set
Actual Time 7:14 AM MDT 6:19 PM MDT
Civil Twilight 6:48 AM MDT 6:45 PM MDT
Nautical Twilight 6:18 AM MDT 7:15 PM MDT
Astronomical Twilight 5:48 AM MDT 7:45 PM MDT
Moon 4:09 AM MDT (10/20) 4:39 PM MDT (10/20)
Length of Visible Light 11h 57m
Length of Day
11h 04m
Tomorrow will be 2m 13s shorter.
Waning Crescent, 8% of the Moon is Illuminated
Today
Waning Crescent
Oct 23
New
Oct 30
First Quarter
Nov 6
Full
Nov 14
Last Quarter

Today's Extremes

State Highs State Lows

Community

WunderPhotos

Upload Photos

1,763,576 photos uploaded!

Nearby

Snow Depth

Station Depth Elevation
North Costilla 0 in 10600 ft
Gallegos Peak 0 in 9800 ft
Chamita 0 in 8400 ft
Elk Cabin 0 in 8210 ft
Wesner Springs 3 in 11120 ft

Earthquake Activity

City Distance Mag. Time & Date
Trinidad, Colorado 50 miles 2.5 10:01 PM MDT
2014-10-19
Trinidad, Colorado 40 miles 3.8 11:01 AM MDT
2014-10-17
Minimum magnitude displayed is 2.5.

Coastal Water Temperatures

Place Temperature
No Stations Reporting

Nearby Weather Stations